Time;durP1;ratioP1;P1;durP2;ratioP2;P2;SDS_P1;SDS_P2;PMS_P1;PMS_P2;Temp;Humidity;BMP_temperature;BMP_pressure;BME280_temperature;BME280_humidity;BME280_pressure;Samples;Min_cycle;Max_cycle;Signal;HPM_P1;HPM_P2
2021/11/03 00:02:13;;;;;;;4.82;2.38;;;;;;;;;;5035149;28;20076;-62
2021/11/03 00:04:41;;;;;;;5.93;2.42;;;;;;;;;;5034588;28;20149;-63
2021/11/03 00:07:10;;;;;;;6.00;2.60;;;;;;;;;;5035071;28;20049;-62
2021/11/03 00:09:37;;;;;;;7.28;3.03;;;;;;;;;;5035067;28;20049;-62
2021/11/03 00:12:07;;;;;;;8.20;2.72;;;;;;;;;;5035220;28;20049;-62
2021/11/03 00:14:34;;;;;;;6.50;2.53;;;;;;;;;;5034610;28;20053;-62
2021/11/03 00:17:01;;;;;;;7.15;2.83;;;;;;;;;;5034953;28;20069;-63
2021/11/03 00:19:28;;;;;;;7.32;2.95;;;;;;;;;;5034815;28;20148;-62
2021/11/03 00:21:55;;;;;;;7.45;3.03;;;;;;;;;;5034861;28;20414;-62
2021/11/03 00:24:22;;;;;;;7.05;2.78;;;;;;;;;;5034629;28;20057;-62
2021/11/03 00:26:49;;;;;;;6.75;2.85;;;;;;;;;;5033621;28;20060;-62
2021/11/03 00:29:17;;;;;;;5.80;2.85;;;;;;;;;;5034226;28;20065;-61
2021/11/03 00:31:44;;;;;;;5.57;3.00;;;;;;;;;;5034198;28;20562;-61
2021/11/03 00:34:11;;;;;;;4.75;2.50;;;;;;;;;;5034156;28;20057;-62
2021/11/03 00:36:38;;;;;;;5.40;2.80;;;;;;;;;;5034074;28;20053;-61
2021/11/03 00:39:05;;;;;;;6.15;2.80;;;;;;;;;;5034233;28;20053;-61
2021/11/03 00:41:32;;;;;;;5.97;2.97;;;;;;;;;;5033987;28;20054;-63
2021/11/03 00:43:59;;;;;;;6.97;2.65;;;;;;;;;;5034155;28;20077;-61
2021/11/03 00:46:27;;;;;;;6.88;3.20;;;;;;;;;;5033634;28;20060;-60
2021/11/03 00:48:54;;;;;;;5.18;2.85;;;;;;;;;;5033888;28;20057;-60
2021/11/03 00:51:21;;;;;;;5.05;2.53;;;;;;;;;;5033810;28;20494;-61
2021/11/03 00:53:49;;;;;;;6.32;3.40;;;;;;;;;;5033719;28;20096;-61
2021/11/03 00:56:16;;;;;;;7.85;3.90;;;;;;;;;;5033347;28;20053;-61
2021/11/03 00:58:43;;;;;;;7.20;2.85;;;;;;;;;;5033627;28;20045;-61
2021/11/03 01:01:10;;;;;;;6.20;2.83;;;;;;;;;;5033497;28;20056;-62
2021/11/03 01:03:39;;;;;;;6.03;2.60;;;;;;;;;;5033662;28;20402;-62
2021/11/03 01:06:06;;;;;;;6.82;2.90;;;;;;;;;;5033074;28;20057;-62
2021/11/03 01:08:33;;;;;;;6.63;3.15;;;;;;;;;;5033626;28;20573;-62
2021/11/03 01:11:00;;;;;;;5.78;2.70;;;;;;;;;;5033211;28;20050;-62
2021/11/03 01:13:28;;;;;;;7.38;3.30;;;;;;;;;;5033553;28;20480;-60
2021/11/03 01:15:57;;;;;;;4.90;2.67;;;;;;;;;;5032861;28;20056;-62
2021/11/03 01:18:25;;;;;;;9.00;3.53;;;;;;;;;;5033412;28;20568;-61
2021/11/03 01:20:55;;;;;;;8.77;3.47;;;;;;;;;;5033020;28;20056;-62
2021/11/03 01:23:22;;;;;;;5.80;2.72;;;;;;;;;;5033106;28;20051;-62
2021/11/03 01:25:50;;;;;;;6.13;2.58;;;;;;;;;;5032827;28;20064;-61
2021/11/03 01:28:17;;;;;;;4.90;2.20;;;;;;;;;;5033102;28;20049;-61
2021/11/03 01:30:45;;;;;;;4.90;2.40;;;;;;;;;;5032908;28;20083;-61
2021/11/03 01:33:12;;;;;;;3.78;2.20;;;;;;;;;;5032986;28;20054;-61
2021/11/03 01:35:39;;;;;;;4.45;2.10;;;;;;;;;;5032778;28;20414;-62
2021/11/03 01:38:08;;;;;;;5.22;2.33;;;;;;;;;;5031999;28;20109;-62
2021/11/03 01:40:37;;;;;;;5.75;2.30;;;;;;;;;;5032615;28;20059;-61
2021/11/03 01:43:05;;;;;;;6.13;2.67;;;;;;;;;;5032881;28;20405;-62
2021/11/03 01:45:33;;;;;;;4.38;2.20;;;;;;;;;;5032492;28;20050;-61
2021/11/03 01:48:02;;;;;;;5.13;2.40;;;;;;;;;;5032509;28;20046;-61
2021/11/03 01:50:34;;;;;;;4.40;2.20;;;;;;;;;;5032568;28;20049;-61
2021/11/03 01:53:07;;;;;;;5.57;2.30;;;;;;;;;;5032596;28;20063;-61
2021/11/03 01:55:36;;;;;;;4.10;1.90;;;;;;;;;;5032578;28;20053;-62
2021/11/03 01:58:07;;;;;;;5.80;2.35;;;;;;;;;;5032644;28;20057;-62
2021/11/03 02:00:38;;;;;;;3.45;1.90;;;;;;;;;;5032229;28;20063;-61
2021/11/03 02:03:10;;;;;;;4.80;2.17;;;;;;;;;;5032449;28;20482;-61
2021/11/03 02:05:38;;;;;;;5.22;2.22;;;;;;;;;;5032114;28;20499;-61
2021/11/03 02:08:08;;;;;;;6.05;2.40;;;;;;;;;;5032289;28;20053;-62
2021/11/03 02:10:37;;;;;;;4.88;2.28;;;;;;;;;;5032274;28;20406;-62
2021/11/03 02:13:04;;;;;;;6.55;2.50;;;;;;;;;;5032092;28;20045;-61
2021/11/03 02:15:33;;;;;;;6.50;2.63;;;;;;;;;;5031951;28;20135;-62
2021/11/03 02:18:01;;;;;;;3.97;2.00;;;;;;;;;;5032036;28;20433;-62
2021/11/03 02:20:29;;;;;;;4.75;2.05;;;;;;;;;;5032250;28;20059;-61
2021/11/03 02:23:07;;;;;;;3.78;1.98;;;;;;;;;;5032038;28;20049;-62
2021/11/03 02:25:43;;;;;;;4.13;2.08;;;;;;;;;;5031771;28;20059;-61
2021/11/03 02:28:12;;;;;;;4.60;1.98;;;;;;;;;;5032099;28;20053;-61
2021/11/03 02:30:39;;;;;;;3.72;1.58;;;;;;;;;;5031889;28;20049;-59
2021/11/03 02:33:10;;;;;;;4.80;1.60;;;;;;;;;;5032270;28;20401;-61
2021/11/03 02:35:38;;;;;;;4.60;1.90;;;;;;;;;;5031745;28;20162;-61
2021/11/03 02:38:06;;;;;;;3.95;1.80;;;;;;;;;;5032009;28;20053;-61
2021/11/03 02:40:46;;;;;;;3.72;2.00;;;;;;;;;;5031671;28;20080;-61
2021/11/03 02:43:17;;;;;;;3.78;1.92;;;;;;;;;;5031751;28;20053;-61
2021/11/03 02:45:48;;;;;;;4.13;1.80;;;;;;;;;;5031503;28;20084;-61
2021/11/03 02:48:15;;;;;;;3.83;1.92;;;;;;;;;;5031883;28;20494;-62
2021/11/03 02:51:03;;;;;;;5.32;2.28;;;;;;;;;;5031709;28;20518;-62
2021/11/03 02:53:31;;;;;;;5.70;2.22;;;;;;;;;;5031780;28;20057;-61
2021/11/03 02:56:00;;;;;;;4.78;2.00;;;;;;;;;;5031626;28;20716;-61
2021/11/03 02:58:27;;;;;;;3.67;1.88;;;;;;;;;;5031889;28;20045;-61
2021/11/03 03:00:55;;;;;;;3.97;1.80;;;;;;;;;;5031567;28;20056;-61
2021/11/03 03:03:23;;;;;;;3.97;1.90;;;;;;;;;;5031798;28;20049;-61
2021/11/03 03:05:57;;;;;;;3.83;1.65;;;;;;;;;;5031138;28;20095;-61
2021/11/03 03:08:25;;;;;;;3.63;1.92;;;;;;;;;;5031662;28;20402;-62
2021/11/03 03:10:52;;;;;;;4.80;2.67;;;;;;;;;;5031453;28;20045;-61
2021/11/03 03:13:20;;;;;;;5.47;2.10;;;;;;;;;;5031603;28;20049;-61
2021/11/03 03:15:47;;;;;;;4.88;2.30;;;;;;;;;;5031266;28;20052;-62
2021/11/03 03:18:14;;;;;;;4.03;2.13;;;;;;;;;;5031488;28;20060;-60
2021/11/03 03:20:41;;;;;;;4.55;2.22;;;;;;;;;;5031348;28;20418;-62
2021/11/03 03:23:08;;;;;;;7.03;2.70;;;;;;;;;;5031747;28;20046;-62
2021/11/03 03:25:37;;;;;;;5.63;2.58;;;;;;;;;;5031028;28;20072;-62
2021/11/03 03:28:05;;;;;;;6.65;2.97;;;;;;;;;;5031307;28;20087;-62
2021/11/03 03:30:33;;;;;;;13.27;5.15;;;;;;;;;;5031442;28;20065;-61
2021/11/03 03:36:22;;;;;;;11.57;3.70;;;;;;;;;;5029085;28;20059;-62
2021/11/03 03:38:50;;;;;;;7.10;3.47;;;;;;;;;;5031545;28;20521;-61
2021/11/03 03:41:19;;;;;;;4.63;2.42;;;;;;;;;;5031166;28;20052;-62
2021/11/03 03:43:46;;;;;;;6.88;2.83;;;;;;;;;;5031583;28;20045;-61
2021/11/03 03:46:15;;;;;;;7.13;3.17;;;;;;;;;;5030992;28;20051;-61
2021/11/03 03:48:42;;;;;;;8.05;2.88;;;;;;;;;;5031403;28;20049;-62
2021/11/03 03:51:12;;;;;;;6.10;2.97;;;;;;;;;;5031444;28;20068;-61
2021/11/03 03:53:39;;;;;;;5.10;2.55;;;;;;;;;;5031383;28;20045;-61
2021/11/03 03:56:06;;;;;;;7.07;2.92;;;;;;;;;;5030846;28;20049;-62
2021/11/03 03:58:34;;;;;;;6.90;3.60;;;;;;;;;;5031179;28;20061;-61
2021/11/03 04:01:01;;;;;;;5.30;2.70;;;;;;;;;;5032492;28;20046;-62
2021/11/03 04:03:29;;;;;;;8.27;3.63;;;;;;;;;;5034859;28;20053;-62
2021/11/03 04:05:56;;;;;;;6.90;3.55;;;;;;;;;;5034249;28;20053;-60
2021/11/03 04:08:24;;;;;;;8.13;3.80;;;;;;;;;;5034609;28;20063;-62
2021/11/03 04:10:51;;;;;;;8.02;3.95;;;;;;;;;;5034408;28;20139;-61
2021/11/03 04:13:20;;;;;;;7.63;3.85;;;;;;;;;;5034540;28;20103;-63
2021/11/03 04:15:47;;;;;;;8.90;4.65;;;;;;;;;;5034700;28;20052;-62
2021/11/03 04:18:14;;;;;;;9.80;4.32;;;;;;;;;;5034425;28;20049;-61
2021/11/03 04:20:43;;;;;;;8.45;4.05;;;;;;;;;;5034405;28;20042;-60
2021/11/03 04:23:10;;;;;;;8.75;4.13;;;;;;;;;;5034237;28;20085;-60
2021/11/03 04:25:37;;;;;;;9.07;5.40;;;;;;;;;;5034061;28;20049;-60
2021/11/03 04:28:05;;;;;;;10.60;5.68;;;;;;;;;;5034145;28;20075;-61
2021/11/03 04:30:32;;;;;;;11.48;5.10;;;;;;;;;;5034229;28;20056;-61
2021/11/03 04:33:00;;;;;;;9.98;5.10;;;;;;;;;;5034117;28;20060;-61
2021/11/03 04:35:27;;;;;;;10.60;5.82;;;;;;;;;;5033931;28;20053;-61
2021/11/03 04:37:56;;;;;;;9.95;5.20;;;;;;;;;;5033965;28;20049;-61
2021/11/03 04:40:26;;;;;;;10.82;4.75;;;;;;;;;;5033764;28;20049;-61
2021/11/03 04:42:53;;;;;;;9.63;5.43;;;;;;;;;;5034025;28;20053;-62
2021/11/03 04:45:21;;;;;;;10.48;5.22;;;;;;;;;;5033479;28;20064;-61
2021/11/03 04:47:48;;;;;;;12.38;5.60;;;;;;;;;;5033785;28;20392;-61
2021/11/03 04:50:17;;;;;;;11.15;5.63;;;;;;;;;;5033733;28;20054;-63
2021/11/03 04:52:44;;;;;;;12.82;6.20;;;;;;;;;;5033743;28;20053;-62
2021/11/03 04:55:14;;;;;;;10.27;5.32;;;;;;;;;;5033587;28;20053;-61
2021/11/03 04:57:41;;;;;;;11.98;5.97;;;;;;;;;;5033520;28;20053;-61
2021/11/03 05:00:15;;;;;;;11.80;5.82;;;;;;;;;;5033809;28;20494;-60
2021/11/03 05:02:42;;;;;;;12.85;6.07;;;;;;;;;;5033650;28;20049;-61
2021/11/03 05:05:09;;;;;;;13.73;6.18;;;;;;;;;;5033435;28;20050;-62
2021/11/03 05:07:36;;;;;;;14.57;6.38;;;;;;;;;;5033650;28;20436;-61
2021/11/03 05:10:04;;;;;;;12.43;5.70;;;;;;;;;;5033453;28;20063;-62
2021/11/03 05:12:32;;;;;;;12.93;6.03;;;;;;;;;;5033367;28;20050;-61
2021/11/03 05:14:59;;;;;;;12.10;5.80;;;;;;;;;;5033134;28;20068;-61
2021/11/03 05:17:27;;;;;;;11.40;5.68;;;;;;;;;;5033675;28;20383;-61
2021/11/03 05:19:54;;;;;;;14.10;6.57;;;;;;;;;;5033434;28;20414;-61
2021/11/03 05:22:25;;;;;;;12.23;5.97;;;;;;;;;;5033514;28;20056;-61
2021/11/03 05:24:52;;;;;;;11.05;6.28;;;;;;;;;;5032771;28;20140;-60
2021/11/03 05:27:19;;;;;;;13.07;6.22;;;;;;;;;;5033367;28;20081;-62
2021/11/03 05:29:47;;;;;;;11.07;6.13;;;;;;;;;;5033027;28;20064;-61
2021/11/03 05:32:14;;;;;;;13.32;6.85;;;;;;;;;;5033188;28;20061;-61
2021/11/03 05:34:41;;;;;;;14.32;7.13;;;;;;;;;;5032934;28;20049;-60
2021/11/03 05:37:08;;;;;;;13.43;6.35;;;;;;;;;;5033004;28;20045;-61
2021/11/03 05:39:35;;;;;;;11.15;5.68;;;;;;;;;;5033390;28;20532;-61
2021/11/03 05:42:02;;;;;;;11.23;6.60;;;;;;;;;;5049401;23;20045;-82
2021/11/03 05:44:29;;;;;;;14.63;6.78;;;;;;;;;;5018917;28;20057;-83
2021/11/03 05:46:58;;;;;;;13.85;6.93;;;;;;;;;;5017103;28;20104;-83
2021/11/03 05:49:29;;;;;;;12.18;6.20;;;;;;;;;;5022548;28;20049;-83
2021/11/03 05:51:58;;;;;;;12.80;6.28;;;;;;;;;;5022742;28;20046;-83
2021/11/03 05:54:26;;;;;;;14.88;6.70;;;;;;;;;;5037008;28;20049;-83
2021/11/03 05:56:54;;;;;;;14.45;7.32;;;;;;;;;;5038607;28;20053;-83
2021/11/03 05:59:22;;;;;;;15.10;7.82;;;;;;;;;;5037555;28;20045;-83
2021/11/03 06:01:49;;;;;;;14.65;7.63;;;;;;;;;;5036541;28;20045;-83
2021/11/03 06:04:17;;;;;;;12.48;6.53;;;;;;;;;;5036240;28;20108;-82
2021/11/03 06:06:44;;;;;;;11.25;6.13;;;;;;;;;;5035422;28;20049;-83
2021/11/03 06:09:11;;;;;;;31.98;15.02;;;;;;;;;;5037456;28;20049;-83
2021/11/03 06:11:41;;;;;;;25.85;12.55;;;;;;;;;;5036910;28;20053;-83
2021/11/03 06:14:09;;;;;;;13.77;6.38;;;;;;;;;;5038304;28;20130;-83
2021/11/03 06:16:37;;;;;;;13.98;6.00;;;;;;;;;;5036313;28;20053;-83
2021/11/03 06:19:04;;;;;;;15.77;7.00;;;;;;;;;;5036360;28;20504;-83
2021/11/03 06:21:33;;;;;;;15.82;6.53;;;;;;;;;;5036283;28;20526;-83
2021/11/03 06:24:00;;;;;;;11.40;6.38;;;;;;;;;;5035241;28;20045;-83
2021/11/03 06:26:27;;;;;;;12.85;7.78;;;;;;;;;;5034953;28;20104;-83
2021/11/03 06:28:54;;;;;;;11.40;6.97;;;;;;;;;;5035566;28;20049;-83
2021/11/03 06:31:22;;;;;;;14.05;7.18;;;;;;;;;;5037359;28;20447;-83
2021/11/03 06:33:49;;;;;;;14.15;7.93;;;;;;;;;;5037135;28;20096;-82
2021/11/03 06:36:16;;;;;;;14.93;6.78;;;;;;;;;;5035586;28;20041;-83
2021/11/03 06:38:45;;;;;;;14.05;7.15;;;;;;;;;;5036086;28;20099;-83
2021/11/03 06:41:15;;;;;;;12.75;6.28;;;;;;;;;;5052738;28;20083;-83
2021/11/03 06:43:42;;;;;;;16.45;7.85;;;;;;;;;;5051381;28;20064;-83
2021/11/03 06:46:09;;;;;;;16.27;7.57;;;;;;;;;;5053472;28;20431;-82
2021/11/03 06:48:36;;;;;;;14.05;8.45;;;;;;;;;;5045586;28;20073;-83
2021/11/03 06:51:03;;;;;;;15.40;7.80;;;;;;;;;;5042445;28;20472;-83
2021/11/03 06:53:32;;;;;;;16.85;7.25;;;;;;;;;;5039466;28;20046;-83
2021/11/03 06:56:01;;;;;;;14.20;6.30;;;;;;;;;;5036380;28;20053;-83
2021/11/03 06:58:29;;;;;;;13.50;6.75;;;;;;;;;;5036014;28;20053;-83
2021/11/03 07:00:56;;;;;;;16.00;6.82;;;;;;;;;;5035670;28;20061;-83
2021/11/03 07:03:25;;;;;;;15.00;7.63;;;;;;;;;;5039184;28;20045;-84
2021/11/03 07:05:53;;;;;;;19.77;9.38;;;;;;;;;;5035466;28;20045;-84
2021/11/03 07:08:21;;;;;;;14.68;8.27;;;;;;;;;;5035275;28;20049;-84
2021/11/03 07:10:51;;;;;;;11.95;6.20;;;;;;;;;;5035594;28;20053;-84
2021/11/03 07:13:21;;;;;;;15.52;6.97;;;;;;;;;;5035982;28;20046;-84
2021/11/03 07:15:49;;;;;;;15.17;7.07;;;;;;;;;;5035793;28;20566;-83
2021/11/03 07:18:16;;;;;;;11.82;6.10;;;;;;;;;;5035918;28;20326;-83
2021/11/03 07:20:45;;;;;;;34.42;17.05;;;;;;;;;;5035764;28;20057;-83
2021/11/03 07:23:13;;;;;;;31.35;15.82;;;;;;;;;;5035739;28;20089;-83
2021/11/03 07:25:41;;;;;;;15.27;8.15;;;;;;;;;;5035791;28;20111;-83
2021/11/03 07:28:08;;;;;;;10.10;6.00;;;;;;;;;;5035153;28;20060;-83
2021/11/03 07:30:38;;;;;;;15.55;6.72;;;;;;;;;;5034479;28;20053;-83
2021/11/03 07:33:06;;;;;;;10.57;5.63;;;;;;;;;;5033575;28;20048;-84
2021/11/03 07:35:34;;;;;;;10.50;4.88;;;;;;;;;;5025325;28;20042;-84
2021/11/03 07:38:02;;;;;;;11.07;5.38;;;;;;;;;;5040514;28;20076;-84
2021/11/03 07:40:33;;;;;;;12.85;5.82;;;;;;;;;;5053228;28;20057;-83
2021/11/03 07:43:03;;;;;;;10.73;5.70;;;;;;;;;;5052747;28;20487;-84
2021/11/03 07:45:34;;;;;;;14.23;6.78;;;;;;;;;;5052672;28;20052;-83
2021/11/03 07:48:04;;;;;;;14.15;6.78;;;;;;;;;;5044641;28;20470;-83
2021/11/03 07:50:36;;;;;;;14.27;6.20;;;;;;;;;;5041681;28;20056;-83
2021/11/03 07:53:04;;;;;;;12.32;6.70;;;;;;;;;;5042980;28;20419;-84
2021/11/03 07:55:31;;;;;;;13.25;6.57;;;;;;;;;;5042441;28;20064;-84
2021/11/03 07:57:58;;;;;;;11.77;5.03;;;;;;;;;;5047031;28;20498;-84
2021/11/03 08:00:27;;;;;;;12.77;6.60;;;;;;;;;;5046781;28;20049;-84
2021/11/03 08:02:54;;;;;;;10.27;5.60;;;;;;;;;;5047566;28;20168;-84
2021/11/03 08:05:27;;;;;;;9.65;5.30;;;;;;;;;;5032725;28;20064;-84
2021/11/03 08:07:54;;;;;;;10.60;4.95;;;;;;;;;;5033143;28;20064;-84
2021/11/03 08:10:23;;;;;;;9.57;4.63;;;;;;;;;;5033121;28;20050;-86
2021/11/03 08:12:51;;;;;;;12.00;5.45;;;;;;;;;;5033666;28;20492;-87
2021/11/03 08:15:18;;;;;;;13.05;6.35;;;;;;;;;;5033099;28;20049;-85
2021/11/03 08:17:45;;;;;;;10.77;4.80;;;;;;;;;;5033116;28;20049;-88
2021/11/03 08:20:20;;;;;;;12.25;4.65;;;;;;;;;;5035053;28;20050;-85
2021/11/03 08:22:56;;;;;;;10.27;5.05;;;;;;;;;;5034779;28;20144;-86
2021/11/03 08:25:24;;;;;;;12.35;5.88;;;;;;;;;;5031972;28;20042;-85
2021/11/03 08:27:51;;;;;;;11.55;5.07;;;;;;;;;;5032782;28;20536;-86
2021/11/03 08:30:18;;;;;;;10.20;4.82;;;;;;;;;;5034518;28;20378;-86
2021/11/03 08:32:50;;;;;;;9.63;4.15;;;;;;;;;;5030941;28;20065;-86
2021/11/03 08:35:19;;;;;;;14.00;6.10;;;;;;;;;;5030450;28;20152;-86
2021/11/03 08:37:50;;;;;;;20.30;7.97;;;;;;;;;;5031770;28;20055;-86
2021/11/03 08:40:22;;;;;;;17.92;7.00;;;;;;;;;;5030440;28;20752;-85
2021/11/03 08:42:50;;;;;;;11.98;4.70;;;;;;;;;;5033590;28;20362;-86
2021/11/03 08:45:21;;;;;;;15.23;5.80;;;;;;;;;;5036702;28;20042;-84
2021/11/03 08:47:48;;;;;;;8.93;5.15;;;;;;;;;;5035705;28;20048;-84
2021/11/03 08:50:19;;;;;;;9.40;5.30;;;;;;;;;;5034321;28;20041;-84
2021/11/03 08:52:46;;;;;;;9.13;5.15;;;;;;;;;;5033211;28;20099;-85
2021/11/03 08:55:14;;;;;;;13.18;5.53;;;;;;;;;;5042728;28;20049;-84
2021/11/03 08:57:44;;;;;;;12.60;4.60;;;;;;;;;;5042588;28;20075;-85
2021/11/03 09:00:14;;;;;;;8.07;4.03;;;;;;;;;;5035819;28;20048;-85
2021/11/03 09:02:42;;;;;;;7.80;4.40;;;;;;;;;;5038582;28;20044;-85
2021/11/03 09:05:14;;;;;;;8.55;4.63;;;;;;;;;;5043866;28;20049;-85
2021/11/03 09:07:44;;;;;;;10.27;4.80;;;;;;;;;;5040825;28;20042;-85
2021/11/03 09:10:17;;;;;;;10.50;4.25;;;;;;;;;;5043426;28;20053;-84
2021/11/03 09:12:45;;;;;;;16.98;7.22;;;;;;;;;;5033902;28;20140;-85
2021/11/03 09:15:21;;;;;;;10.13;5.60;;;;;;;;;;5034621;28;20072;-85
2021/11/03 09:17:48;;;;;;;12.80;6.45;;;;;;;;;;5032575;28;20092;-84
2021/11/03 09:20:16;;;;;;;9.25;5.05;;;;;;;;;;5031546;28;20498;-85
2021/11/03 09:22:44;;;;;;;8.82;4.68;;;;;;;;;;5034897;28;20056;-86
2021/11/03 09:25:14;;;;;;;8.88;4.75;;;;;;;;;;5030278;28;20046;-86
2021/11/03 09:27:42;;;;;;;6.88;3.88;;;;;;;;;;5032188;28;20045;-84
2021/11/03 09:30:14;;;;;;;11.02;5.20;;;;;;;;;;5030527;28;20079;-85
2021/11/03 09:32:45;;;;;;;6.90;3.80;;;;;;;;;;5033116;28;20136;-86
2021/11/03 09:35:13;;;;;;;10.57;4.03;;;;;;;;;;5031603;28;20491;-86
2021/11/03 09:37:41;;;;;;;8.43;3.92;;;;;;;;;;5032862;28;20045;-85
2021/11/03 09:40:23;;;;;;;7.53;4.07;;;;;;;;;;5033467;28;20041;-86
2021/11/03 09:42:51;;;;;;;7.03;3.78;;;;;;;;;;5036358;28;20049;-84
2021/11/03 09:45:23;;;;;;;6.57;3.60;;;;;;;;;;5044388;28;20045;-85
2021/11/03 09:48:16;;;;;;;11.90;3.72;;;;;;;;;;5053998;28;20038;-85
2021/11/03 09:50:52;;;;;;;11.32;3.85;;;;;;;;;;5052654;28;20048;-86
2021/11/03 09:53:39;;;;;;;8.02;3.45;;;;;;;;;;5048186;28;20075;-85
2021/11/03 09:56:13;;;;;;;7.70;4.15;;;;;;;;;;5035851;28;20418;-85
2021/11/03 09:59:01;;;;;;;10.63;4.72;;;;;;;;;;5036095;28;20064;-84
2021/11/03 10:01:42;;;;;;;8.57;3.50;;;;;;;;;;5036432;28;20144;-85
2021/11/03 10:04:20;;;;;;;6.93;3.17;;;;;;;;;;5036822;28;20045;-85
2021/11/03 10:06:56;;;;;;;7.50;3.33;;;;;;;;;;5035719;28;20045;-84
2021/11/03 10:09:24;;;;;;;6.28;2.85;;;;;;;;;;5033901;28;20072;-86
2021/11/03 10:11:56;;;;;;;5.13;2.83;;;;;;;;;;5032524;28;20522;-85
2021/11/03 10:14:28;;;;;;;8.05;3.60;;;;;;;;;;5031801;28;20099;-84
2021/11/03 10:17:18;;;;;;;7.78;2.90;;;;;;;;;;5031739;28;20049;-85
2021/11/03 10:19:45;;;;;;;5.72;3.05;;;;;;;;;;5031638;28;20041;-85
2021/11/03 10:22:29;;;;;;;6.13;3.10;;;;;;;;;;5033817;28;20049;-85
2021/11/03 10:25:16;;;;;;;8.55;3.50;;;;;;;;;;5038976;28;20077;-85
2021/11/03 10:27:51;;;;;;;6.72;3.90;;;;;;;;;;5036373;28;20128;-85
2021/11/03 10:30:31;;;;;;;8.60;4.05;;;;;;;;;;5033767;28;20037;-85
2021/11/03 10:33:23;;;;;;;14.80;7.82;;;;;;;;;;5032609;28;20049;-85
2021/11/03 10:35:59;;;;;;;7.00;3.85;;;;;;;;;;5036494;28;20053;-85
2021/11/03 10:38:27;;;;;;;9.63;4.90;;;;;;;;;;5035047;28;20053;-84
2021/11/03 10:41:01;;;;;;;13.27;6.18;;;;;;;;;;5034720;28;20057;-85
2021/11/03 10:43:32;;;;;;;15.05;7.57;;;;;;;;;;5035168;28;20049;-84
2021/11/03 10:46:16;;;;;;;11.25;4.95;;;;;;;;;;5033628;28;20140;-85
2021/11/03 10:49:20;;;;;;;7.35;4.10;;;;;;;;;;5033104;28;20060;-84
2021/11/03 10:52:22;;;;;;;8.68;3.47;;;;;;;;;;5033398;28;20044;-84
2021/11/03 10:54:51;;;;;;;5.93;3.15;;;;;;;;;;5028923;28;20053;-85
2021/11/03 10:57:27;;;;;;;8.50;3.45;;;;;;;;;;5029842;28;20049;-85
2021/11/03 11:00:03;;;;;;;7.25;3.40;;;;;;;;;;5030044;28;20527;-84
2021/11/03 11:02:32;;;;;;;6.15;3.13;;;;;;;;;;5030523;28;20049;-85
2021/11/03 11:05:12;;;;;;;6.95;3.10;;;;;;;;;;5029690;28;20600;-85
2021/11/03 11:07:48;;;;;;;9.95;4.38;;;;;;;;;;5029315;28;20046;-85
2021/11/03 11:10:20;;;;;;;9.80;4.38;;;;;;;;;;5031582;28;20050;-85
2021/11/03 11:12:50;;;;;;;8.13;4.28;;;;;;;;;;5033092;28;20111;-84
2021/11/03 11:15:29;;;;;;;9.45;4.00;;;;;;;;;;5032499;28;20053;-85
2021/11/03 11:18:26;;;;;;;9.13;4.30;;;;;;;;;;5034567;28;20049;-84
2021/11/03 11:21:43;;;;;;;8.07;3.47;;;;;;;;;;5036862;28;20141;-84
2021/11/03 11:24:15;;;;;;;7.20;3.67;;;;;;;;;;5034986;28;20132;-84
2021/11/03 11:26:59;;;;;;;9.45;3.80;;;;;;;;;;5035947;28;20050;-84
2021/11/03 11:29:35;;;;;;;9.25;4.20;;;;;;;;;;5035778;28;20077;-86
2021/11/03 11:32:19;;;;;;;7.35;3.83;;;;;;;;;;5034313;28;20057;-85
2021/11/03 11:35:01;;;;;;;7.43;3.83;;;;;;;;;;5034133;28;20049;-85
2021/11/03 11:37:38;;;;;;;9.90;4.32;;;;;;;;;;5034071;28;20085;-86
2021/11/03 11:40:21;;;;;;;6.88;3.60;;;;;;;;;;5035154;28;20054;-85
2021/11/03 11:42:56;;;;;;;9.05;3.75;;;;;;;;;;5033834;28;20045;-84
2021/11/03 11:48:18;;;;;;;7.82;3.42;;;;;;;;;;5035773;28;20049;-84
2021/11/03 11:50:52;;;;;;;7.82;3.40;;;;;;;;;;5035726;28;20437;-85
2021/11/03 11:53:30;;;;;;;6.80;3.08;;;;;;;;;;5034248;28;20357;-86
2021/11/03 11:56:16;;;;;;;6.13;3.20;;;;;;;;;;5034284;28;20057;-85
2021/11/03 11:58:52;;;;;;;8.70;4.18;;;;;;;;;;5034352;28;20080;-86
2021/11/03 12:01:32;;;;;;;11.35;4.30;;;;;;;;;;5036132;28;20276;-86
2021/11/03 12:04:38;;;;;;;9.68;4.05;;;;;;;;;;5036665;28;20042;-85
2021/11/03 12:07:29;;;;;;;9.32;4.35;;;;;;;;;;5035838;28;20048;-87
2021/11/03 12:10:25;;;;;;;8.00;4.32;;;;;;;;;;5035419;28;20096;-85
2021/11/03 12:13:22;;;;;;;7.80;3.40;;;;;;;;;;5027479;28;20511;-85
2021/11/03 12:16:17;;;;;;;7.95;3.53;;;;;;;;;;5030675;28;20075;-85
2021/11/03 12:18:50;;;;;;;6.55;3.33;;;;;;;;;;5034327;28;20049;-85
2021/11/03 12:21:34;;;;;;;8.82;3.60;;;;;;;;;;5029007;28;20042;-85
2021/11/03 12:24:29;;;;;;;8.35;3.90;;;;;;;;;;5031294;28;20041;-85
2021/11/03 12:27:35;;;;;;;7.32;4.18;;;;;;;;;;5031836;28;20045;-85
2021/11/03 12:30:31;;;;;;;12.77;3.25;;;;;;;;;;5037438;28;20072;-84
2021/11/03 12:33:03;;;;;;;7.80;2.85;;;;;;;;;;5045180;28;20053;-85
2021/11/03 12:35:47;;;;;;;7.28;3.33;;;;;;;;;;5047135;28;20068;-84
2021/11/03 12:38:39;;;;;;;7.75;4.10;;;;;;;;;;5028285;28;20046;-85
2021/11/03 12:41:23;;;;;;;7.80;3.53;;;;;;;;;;5034783;28;20037;-85
2021/11/03 12:44:01;;;;;;;13.98;4.63;;;;;;;;;;5037526;28;20084;-85
2021/11/03 12:46:32;;;;;;;12.18;4.75;;;;;;;;;;5034879;28;20041;-85
2021/11/03 12:49:00;;;;;;;11.30;5.57;;;;;;;;;;5041866;28;20052;-86
2021/11/03 12:51:30;;;;;;;15.50;6.15;;;;;;;;;;5054986;28;20052;-86
2021/11/03 12:54:04;;;;;;;9.80;5.70;;;;;;;;;;5051303;28;20025;-85
2021/11/03 12:56:34;;;;;;;13.10;6.40;;;;;;;;;;5053892;28;20290;-85
2021/11/03 12:59:04;;;;;;;13.93;7.10;;;;;;;;;;5039381;28;20053;-84
2021/11/03 13:01:37;;;;;;;13.38;6.25;;;;;;;;;;5034929;28;20042;-85
2021/11/03 13:04:14;;;;;;;16.52;7.43;;;;;;;;;;5034176;28;20049;-85
2021/11/03 13:06:50;;;;;;;12.60;7.40;;;;;;;;;;5033147;28;20040;-83
2021/11/03 13:09:31;;;;;;;16.67;7.70;;;;;;;;;;5032890;28;20482;-86
2021/11/03 13:11:59;;;;;;;14.18;7.07;;;;;;;;;;5039676;28;20038;-86
2021/11/03 13:14:28;;;;;;;13.70;7.05;;;;;;;;;;5033380;28;20107;-86
2021/11/03 13:16:59;;;;;;;13.05;6.70;;;;;;;;;;5035783;28;20052;-86
2021/11/03 13:19:30;;;;;;;15.18;7.25;;;;;;;;;;5030678;28;20123;-87
2021/11/03 13:21:59;;;;;;;16.15;7.32;;;;;;;;;;5030765;28;20057;-87
2021/11/03 13:24:29;;;;;;;13.93;6.40;;;;;;;;;;5031199;28;20052;-86
2021/11/03 13:26:56;;;;;;;13.80;7.80;;;;;;;;;;5029549;28;20049;-86
2021/11/03 13:29:27;;;;;;;21.60;7.53;;;;;;;;;;5030990;28;20054;-85
2021/11/03 13:32:16;;;;;;;18.42;7.78;;;;;;;;;;5035423;28;20072;-86
2021/11/03 13:34:50;;;;;;;17.17;8.70;;;;;;;;;;5033583;28;20065;-85
2021/11/03 13:40:24;;;;;;;14.52;6.90;;;;;;;;;;5030516;28;20582;-85
2021/11/03 13:43:10;;;;;;;23.65;9.23;;;;;;;;;;5029554;28;20037;-85
2021/11/03 13:45:40;;;;;;;15.77;8.18;;;;;;;;;;5029932;28;20046;-85
2021/11/03 13:48:20;;;;;;;15.13;7.82;;;;;;;;;;5029687;28;20041;-86
2021/11/03 13:51:00;;;;;;;15.23;7.45;;;;;;;;;;5028963;28;20055;-85
2021/11/03 13:53:30;;;;;;;16.17;7.43;;;;;;;;;;5030976;28;20108;-86
2021/11/03 13:56:11;;;;;;;14.05;7.20;;;;;;;;;;5044478;28;20041;-85
2021/11/03 13:58:42;;;;;;;14.00;7.45;;;;;;;;;;5046582;28;20049;-85
2021/11/03 14:01:22;;;;;;;18.45;8.60;;;;;;;;;;5043017;28;20145;-84
2021/11/03 14:04:14;;;;;;;15.45;7.57;;;;;;;;;;5035238;28;20423;-85
2021/11/03 14:06:45;;;;;;;18.13;8.48;;;;;;;;;;5028693;28;20089;-84
2021/11/03 14:09:18;;;;;;;15.10;7.97;;;;;;;;;;5028928;28;20053;-84
2021/11/03 14:11:47;;;;;;;14.45;8.52;;;;;;;;;;5029544;28;20065;-84
2021/11/03 14:14:16;;;;;;;15.73;8.10;;;;;;;;;;5030911;28;20068;-84
2021/11/03 14:16:51;;;;;;;17.20;8.55;;;;;;;;;;5029289;28;20053;-84
2021/11/03 14:19:25;;;;;;;17.05;8.48;;;;;;;;;;5029174;28;20496;-84
2021/11/03 14:21:55;;;;;;;14.05;9.30;;;;;;;;;;5030397;28;20183;-84
2021/11/03 14:24:23;;;;;;;16.27;8.77;;;;;;;;;;5031392;28;20077;-85
2021/11/03 14:26:50;;;;;;;19.35;9.75;;;;;;;;;;5032701;28;20045;-86
2021/11/03 14:29:17;;;;;;;17.90;9.27;;;;;;;;;;5030691;28;20057;-85
2021/11/03 14:31:46;;;;;;;19.85;9.38;;;;;;;;;;5029217;28;20121;-85
2021/11/03 14:34:18;;;;;;;16.63;9.43;;;;;;;;;;5028627;28;20041;-85
2021/11/03 14:36:48;;;;;;;18.10;9.00;;;;;;;;;;5029791;28;20106;-86
2021/11/03 14:39:40;;;;;;;18.33;10.23;;;;;;;;;;5030982;28;20068;-86
2021/11/03 14:42:09;;;;;;;16.20;8.40;;;;;;;;;;5029136;28;20147;-86
2021/11/03 14:44:39;;;;;;;18.83;8.43;;;;;;;;;;5032604;28;20076;-85
2021/11/03 14:47:22;;;;;;;15.63;8.57;;;;;;;;;;5034502;28;20124;-85
2021/11/03 14:49:59;;;;;;;18.00;9.00;;;;;;;;;;5032313;28;20517;-86
2021/11/03 14:52:33;;;;;;;16.13;8.63;;;;;;;;;;5034227;28;20051;-85
2021/11/03 14:55:05;;;;;;;16.73;8.88;;;;;;;;;;5032461;28;20041;-84
2021/11/03 14:57:32;;;;;;;14.57;8.45;;;;;;;;;;5035463;28;20045;-84
2021/11/03 15:00:02;;;;;;;16.17;8.68;;;;;;;;;;5031105;28;20053;-84
2021/11/03 15:02:41;;;;;;;16.83;8.85;;;;;;;;;;5031255;28;20080;-85
2021/11/03 15:05:13;;;;;;;16.38;9.00;;;;;;;;;;5032331;28;20037;-85
2021/11/03 15:07:44;;;;;;;18.10;9.65;;;;;;;;;;5033060;28;20049;-85
2021/11/03 15:10:18;;;;;;;17.98;9.55;;;;;;;;;;5030914;28;20045;-84
2021/11/03 15:12:46;;;;;;;17.10;9.88;;;;;;;;;;5038263;23;20073;-64